Time;durP1;ratioP1;P1;durP2;ratioP2;P2;SDS_P1;SDS_P2;PMS_P1;PMS_P2;Temp;Humidity;BMP_temperature;BMP_pressure;BME280_temperature;BME280_humidity;BME280_pressure;Samples;Min_cycle;Max_cycle;Signal;HPM_P1;HPM_P2
2021/12/17 00:05:15;;;;;;;;;;;;;;;7.47;59.60;100975.59;4442155;32;19985;-86
2021/12/17 00:07:09;;;;;;;;;;;;;;;7.38;59.58;100976.47;4435489;32;19989;-84
2021/12/17 00:09:34;;;;;;;;;;;;;;;7.40;59.59;100973.88;4429434;32;19995;-83
2021/12/17 00:11:59;;;;;;;;;;;;;;;7.54;59.59;100979.06;4441817;32;20273;-86
2021/12/17 00:14:27;;;;;;;;;;;;;;;7.60;59.60;100974.75;4429478;32;19989;-83
2021/12/17 00:16:53;;;;;;;;;;;;;;;7.61;59.60;100967.84;4442364;32;20107;-86
2021/12/17 00:19:33;;;;;;;;;;;;;;;7.54;59.59;100972.13;4442469;32;19973;-86
2021/12/17 00:44:12;;;;;;;;;;;;;;;7.15;59.57;100956.59;4441921;32;19985;-85
2021/12/17 00:49:20;;;;;;;;;;;;;;;6.97;59.57;100973.81;4455834;32;20055;-86
2021/12/17 00:54:23;;;;;;;;;;;;;;;6.91;59.56;100975.53;4443094;32;20339;-85
2021/12/17 00:56:50;;;;;;;;;;;;;;;6.72;59.56;100975.47;4429398;32;20007;-85
2021/12/17 00:59:15;;;;;;;;;;;;;;;6.86;59.55;100975.53;4429291;32;19988;-86
2021/12/17 01:01:40;;;;;;;;;;;;;;;6.82;59.55;100980.66;4430138;32;20483;-87
2021/12/17 01:04:05;;;;;;;;;;;;;;;6.82;59.55;100971.19;4429949;32;19995;-87
2021/12/17 01:06:30;;;;;;;;;;;;;;;6.65;59.54;100965.13;4429825;32;21986;-85
2021/12/17 01:08:56;;;;;;;;;;;;;;;6.74;59.55;100965.13;4430188;32;20005;-87
2021/12/17 01:11:21;;;;;;;;;;;;;;;6.72;59.54;100965.13;4429782;32;20126;-87
2021/12/17 01:13:46;;;;;;;;;;;;;;;6.73;59.55;100951.31;4430122;32;19989;-86
2021/12/17 01:16:11;;;;;;;;;;;;;;;6.70;59.54;100955.63;4430132;32;19997;-87
2021/12/17 01:21:38;;;;;;;;;;;;;;;6.77;59.55;100952.19;4443848;32;20020;-86
2021/12/17 01:24:12;;;;;;;;;;;;;;;6.50;59.53;100939.19;4430941;32;19965;-85
2021/12/17 01:42:54;;;;;;;;;;;;;;;6.51;59.54;100936.59;4441607;32;20000;-85
2021/12/17 01:45:19;;;;;;;;;;;;;;;6.70;59.55;100934.94;4428484;32;19985;-86
2021/12/17 01:47:45;;;;;;;;;;;;;;;6.90;59.56;100938.44;4441297;32;19999;-85
2021/12/17 01:55:50;;;;;;;;;;;;;;;6.74;59.55;100921.13;4444114;32;19980;-85
2021/12/17 02:00:59;;;;;;;;;;;;;;;6.70;59.54;100903.88;4444181;32;19999;-85
2021/12/17 02:03:25;;;;;;;;;;;;;;;6.46;59.54;100900.38;4428446;32;19973;-86
2021/12/17 02:05:50;;;;;;;;;;;;;;;6.56;59.54;100905.56;4428717;32;20254;-85
2021/12/17 02:08:15;;;;;;;;;;;;;;;6.63;59.54;100907.34;4442124;32;20004;-86
2021/12/17 02:32:48;;;;;;;;;;;;;;;6.58;59.55;100898.66;4455832;32;20019;-86
2021/12/17 02:35:27;;;;;;;;;;;;;;;6.43;59.54;100915.88;4441441;32;19991;-85
2021/12/17 02:37:53;;;;;;;;;;;;;;;6.49;59.53;100930.56;4430480;32;20360;-85
2021/12/17 02:45:37;;;;;;;;;;;;;;;6.50;59.54;100958.16;4443517;32;19995;-86
2021/12/17 02:48:02;;;;;;;;;;;;;;;6.58;59.55;100947.81;4430416;32;20042;-86
2021/12/17 02:50:27;;;;;;;;;;;;;;;6.65;59.54;100947.00;4455520;32;20300;-85
2021/12/17 02:52:53;;;;;;;;;;;;;;;6.67;59.55;100955.63;4441591;32;20314;-86
2021/12/17 02:55:18;;;;;;;;;;;;;;;6.70;59.55;100940.12;4428778;32;20013;-85
2021/12/17 02:57:43;;;;;;;;;;;;;;;6.68;59.55;100937.53;4428208;32;19977;-86
2021/12/17 03:00:09;;;;;;;;;;;;;;;6.64;59.54;100934.94;4428024;32;21088;-85
2021/12/17 03:02:37;;;;;;;;;;;;;;;6.64;59.54;100943.56;4441434;32;20054;-87
2021/12/17 03:05:02;;;;;;;;;;;;;;;6.81;59.56;100929.78;4428484;32;19985;-86
2021/12/17 03:07:27;;;;;;;;;;;;;;;6.87;59.56;100927.22;4427525;32;19999;-84
2021/12/17 03:10:03;;;;;;;;;;;;;;;6.66;59.55;100918.53;4427596;32;20005;-85
2021/12/17 03:12:36;;;;;;;;;;;;;;;6.56;59.54;100909.00;4454460;32;20027;-85
2021/12/17 03:15:15;;;;;;;;;;;;;;;6.74;59.55;100922.00;4440247;32;19992;-85
2021/12/17 03:23:39;;;;;;;;;;;;;;;6.63;59.54;100903.03;4443338;32;19999;-86
2021/12/17 03:26:09;;;;;;;;;;;;;;;6.47;59.54;100915.03;4431107;32;19981;-84
2021/12/17 03:28:34;;;;;;;;;;;;;;;6.56;59.54;100915.91;4440910;32;19966;-86
2021/12/17 03:31:00;;;;;;;;;;;;;;;6.41;59.53;100922.78;4427996;32;19985;-84
2021/12/17 03:33:25;;;;;;;;;;;;;;;6.44;59.54;100934.84;4440576;32;19986;-86
2021/12/17 03:35:50;;;;;;;;;;;;;;;6.44;59.54;100929.69;4440305;32;19977;-85
2021/12/17 03:38:16;;;;;;;;;;;;;;;6.32;59.53;100939.97;4440834;32;20315;-85
2021/12/17 03:40:42;;;;;;;;;;;;;;;6.28;59.53;100939.09;4441320;32;20032;-85
2021/12/17 03:43:12;;;;;;;;;;;;;;;6.30;59.53;100937.38;4428051;32;20007;-85
2021/12/17 03:45:38;;;;;;;;;;;;;;;6.24;59.52;100934.78;4428654;32;19996;-87
2021/12/17 03:48:03;;;;;;;;;;;;;;;6.29;59.54;100932.19;4428566;32;20775;-87
2021/12/17 03:50:28;;;;;;;;;;;;;;;6.38;59.53;100932.22;4427530;32;20017;-87
2021/12/17 03:52:54;;;;;;;;;;;;;;;6.39;59.53;100927.09;4427912;32;20010;-87
2021/12/17 03:55:19;;;;;;;;;;;;;;;6.56;59.54;100915.91;4428354;32;20027;-87
2021/12/17 03:57:44;;;;;;;;;;;;;;;6.46;59.54;100907.28;4427551;32;27265;-85
2021/12/17 04:00:10;;;;;;;;;;;;;;;6.50;59.53;100908.16;4427930;32;20072;-87
2021/12/17 04:02:35;;;;;;;;;;;;;;;6.37;59.53;100915.84;4428362;32;19989;-87
2021/12/17 04:05:00;;;;;;;;;;;;;;;6.22;59.53;100914.94;4427788;32;20278;-87
2021/12/17 04:07:25;;;;;;;;;;;;;;;6.21;59.53;100924.41;4428507;32;19981;-88
2021/12/17 04:09:51;;;;;;;;;;;;;;;6.22;59.52;100927.88;4428125;32;20011;-87
2021/12/17 04:12:19;;;;;;;;;;;;;;;6.37;59.53;100936.53;4440789;32;19985;-86
2021/12/17 04:14:47;;;;;;;;;;;;;;;6.48;59.54;100936.59;4428322;32;19981;-87
2021/12/17 04:17:15;;;;;;;;;;;;;;;6.53;59.54;100936.59;4428269;32;20032;-86
2021/12/17 04:19:40;;;;;;;;;;;;;;;6.64;59.54;100946.13;4428453;32;20138;-87
2021/12/17 04:22:06;;;;;;;;;;;;;;;6.62;59.54;100955.59;4428375;32;20005;-87
2021/12/17 04:24:31;;;;;;;;;;;;;;;6.57;59.54;100944.38;4428492;32;19991;-87
2021/12/17 04:26:56;;;;;;;;;;;;;;;6.57;59.53;100952.13;4441243;32;19980;-86
2021/12/17 04:29:23;;;;;;;;;;;;;;;6.62;59.54;100944.38;4430103;32;20020;-86
2021/12/17 04:31:53;;;;;;;;;;;;;;;6.60;59.55;100956.44;4429936;32;19997;-83
2021/12/17 04:34:18;;;;;;;;;;;;;;;6.65;59.54;100959.94;4454403;32;19973;-83
2021/12/17 04:36:46;;;;;;;;;;;;;;;6.53;59.54;100959.88;4454756;32;20019;-83
2021/12/17 04:39:11;;;;;;;;;;;;;;;6.62;59.54;100968.53;4440540;32;20032;-83
2021/12/17 04:44:12;;;;;;;;;;;;;;;6.66;59.55;100962.53;4440444;32;20694;-83
2021/12/17 04:59:58;;;;;;;;;;;;;;;6.23;59.53;100950.28;4441838;32;20003;-83
2021/12/17 05:02:23;;;;;;;;;;;;;;;6.23;59.53;100937.34;4428139;32;20389;-83
2021/12/17 05:04:49;;;;;;;;;;;;;;;6.17;59.52;100929.56;4427634;32;20058;-84
2021/12/17 05:07:14;;;;;;;;;;;;;;;6.16;59.52;100931.28;4440556;32;19989;-83
2021/12/17 05:09:54;;;;;;;;;;;;;;;6.09;59.52;100925.22;4454844;32;20000;-85
2021/12/17 05:20:43;;;;;;;;;;;;;;;5.89;59.50;100915.59;4442150;32;20030;-83
2021/12/17 05:23:08;;;;;;;;;;;;;;;5.70;59.50;100905.16;4428659;32;20011;-83
2021/12/17 05:25:34;;;;;;;;;;;;;;;5.50;59.48;100905.03;4440693;32;20009;-85
2021/12/17 05:28:02;;;;;;;;;;;;;;;5.49;59.48;100894.69;4442041;32;20000;-85
2021/12/17 05:30:28;;;;;;;;;;;;;;;5.36;59.47;100891.13;4429902;32;20036;-86
2021/12/17 05:32:54;;;;;;;;;;;;;;;5.53;59.49;100884.37;4441883;32;20345;-85
2021/12/17 05:35:19;;;;;;;;;;;;;;;5.39;59.48;100882.53;4429589;32;20020;-86
2021/12/17 05:37:44;;;;;;;;;;;;;;;5.26;59.47;100880.75;4429412;32;19988;-84
2021/12/17 05:40:10;;;;;;;;;;;;;;;5.35;59.47;100889.41;4439493;32;20008;-87
2021/12/17 05:42:35;;;;;;;;;;;;;;;5.23;59.46;100897.94;4429188;32;20007;-85
2021/12/17 05:45:08;;;;;;;;;;;;;;;5.39;59.48;100892.88;4428628;32;20273;-85
2021/12/17 05:47:33;;;;;;;;;;;;;;;5.32;59.48;100894.56;4430083;32;19977;-84
2021/12/17 05:49:58;;;;;;;;;;;;;;;5.40;59.48;100900.63;4428380;32;20040;-85
2021/12/17 05:52:24;;;;;;;;;;;;;;;5.54;59.49;100908.50;4428572;32;23503;-85
2021/12/17 05:54:49;;;;;;;;;;;;;;;5.57;59.49;100913.66;4441858;32;20033;-85
2021/12/17 05:57:14;;;;;;;;;;;;;;;5.53;59.49;100914.50;4455836;32;19969;-85
2021/12/17 05:59:40;;;;;;;;;;;;;;;5.62;59.49;100908.53;4442148;32;20012;-86
2021/12/17 06:02:10;;;;;;;;;;;;;;;5.61;59.48;100904.22;4429887;32;20324;-86
2021/12/17 06:04:35;;;;;;;;;;;;;;;5.45;59.48;100898.09;4429885;32;19973;-88
2021/12/17 06:07:00;;;;;;;;;;;;;;;5.37;59.47;100892.88;4442306;32;19980;-86
2021/12/17 06:09:26;;;;;;;;;;;;;;;5.18;59.47;100894.44;4429377;32;20011;-85
2021/12/17 06:11:51;;;;;;;;;;;;;;;5.13;59.46;100892.69;4429755;32;20003;-86
2021/12/17 06:14:16;;;;;;;;;;;;;;;4.99;59.45;100879.66;4442332;32;21420;-85
2021/12/17 06:16:41;;;;;;;;;;;;;;;4.94;59.46;100905.41;4429788;32;20036;-86
2021/12/17 06:19:07;;;;;;;;;;;;;;;4.95;59.46;100926.91;4429661;32;20027;-86
2021/12/17 06:21:32;;;;;;;;;;;;;;;5.12;59.46;100927.06;4429227;32;19989;-86
2021/12/17 06:23:57;;;;;;;;;;;;;;;5.00;59.45;100935.59;4428675;32;20048;-85
2021/12/17 06:26:23;;;;;;;;;;;;;;;5.10;59.46;100926.19;4429377;32;19989;-85
2021/12/17 06:28:50;;;;;;;;;;;;;;;5.11;59.46;100928.78;4442061;32;19996;-85
2021/12/17 06:31:16;;;;;;;;;;;;;;;5.13;59.46;100921.06;4429507;32;20019;-86
2021/12/17 06:33:42;;;;;;;;;;;;;;;5.11;59.46;100925.34;4429467;32;20001;-85
2021/12/17 06:36:07;;;;;;;;;;;;;;;5.01;59.45;100923.53;4429050;32;23430;-86
2021/12/17 06:38:32;;;;;;;;;;;;;;;5.11;59.46;100936.53;4429497;32;20009;-87
2021/12/17 06:40:58;;;;;;;;;;;;;;;5.07;59.45;100950.28;4428702;32;19997;-86
2021/12/17 06:43:29;;;;;;;;;;;;;;;5.11;59.46;100939.13;4429486;32;19991;-86
2021/12/17 06:46:13;;;;;;;;;;;;;;;4.91;59.44;100943.22;4429458;32;20002;-86
2021/12/17 06:48:38;;;;;;;;;;;;;;;5.15;59.46;100960.66;4430990;32;19962;-87
2021/12/17 06:59:39;;;;;;;;;;;;;;;5.26;59.47;100963.34;4455576;32;20269;-86
2021/12/17 07:29:19;;;;;;;;;;;;;;;5.41;59.48;100989.28;4444308;32;20357;-86
2021/12/17 07:34:11;;;;;;;;;;;;;;;5.70;59.50;100993.00;4442509;32;20310;-86
2021/12/17 07:39:16;;;;;;;;;;;;;;;5.73;59.49;101016.25;4443354;32;19999;-85
2021/12/17 07:41:43;;;;;;;;;;;;;;;5.74;59.49;101017.13;4428354;32;20000;-84
2021/12/17 07:44:08;;;;;;;;;;;;;;;5.69;59.50;101011.06;4428382;32;19998;-86
2021/12/17 07:46:34;;;;;;;;;;;;;;;5.73;59.49;101013.69;4428526;32;19996;-85
2021/12/17 07:48:59;;;;;;;;;;;;;;;5.76;59.49;101012.84;4428453;32;19988;-85
2021/12/17 07:51:24;;;;;;;;;;;;;;;5.64;59.49;101011.00;4428458;32;20015;-86
2021/12/17 07:53:50;;;;;;;;;;;;;;;5.54;59.49;101007.50;4428527;32;20045;-87
2021/12/17 07:56:16;;;;;;;;;;;;;;;5.61;59.48;101007.53;4428670;32;19984;-85
2021/12/17 07:58:42;;;;;;;;;;;;;;;5.84;59.51;101032.69;4428632;32;19969;-87
2021/12/17 08:01:08;;;;;;;;;;;;;;;6.02;59.51;101029.44;4428235;32;20337;-86
2021/12/17 08:03:34;;;;;;;;;;;;;;;6.06;59.52;101030.31;4430352;32;20951;-86
2021/12/17 08:05:59;;;;;;;;;;;;;;;5.99;59.51;101018.22;4430424;32;20050;-87
2021/12/17 08:08:24;;;;;;;;;;;;;;;6.00;59.51;101004.44;4430655;32;20079;-87
2021/12/17 08:10:50;;;;;;;;;;;;;;;6.10;59.52;100999.31;4431119;32;20353;-86
2021/12/17 08:13:21;;;;;;;;;;;;;;;5.99;59.51;101013.03;4430698;32;19985;-87
2021/12/17 08:16:00;;;;;;;;;;;;;;;6.01;59.51;101019.94;4431629;32;20042;-87
2021/12/17 08:31:27;;;;;;;;;;;;;;;6.53;59.54;101021.97;4443003;32;20319;-85
2021/12/17 08:33:52;;;;;;;;;;;;;;;6.49;59.53;101028.84;4429528;32;19996;-86
2021/12/17 08:36:18;;;;;;;;;;;;;;;6.43;59.54;101031.41;4429763;32;20016;-86
2021/12/17 08:38:43;;;;;;;;;;;;;;;6.35;59.52;101035.66;4430493;32;19973;-87
2021/12/17 08:41:09;;;;;;;;;;;;;;;6.29;59.53;101028.72;4443448;32;20279;-88
2021/12/17 08:43:34;;;;;;;;;;;;;;;6.34;59.52;101034.78;4430701;32;20054;-88
2021/12/17 08:46:00;;;;;;;;;;;;;;;6.45;59.54;101042.62;4430559;32;19989;-86
2021/12/17 08:48:25;;;;;;;;;;;;;;;6.71;59.55;101032.41;4429837;32;20751;-87
2021/12/17 08:50:50;;;;;;;;;;;;;;;6.57;59.54;101026.28;4443050;32;20024;-88
2021/12/17 08:53:15;;;;;;;;;;;;;;;6.63;59.54;101024.63;4430516;32;20004;-88
2021/12/17 08:55:41;;;;;;;;;;;;;;;6.58;59.55;101026.28;4430523;32;20000;-88
2021/12/17 08:58:09;;;;;;;;;;;;;;;6.81;59.55;101016.03;4429749;32;19973;-87
2021/12/17 09:00:34;;;;;;;;;;;;;;;6.86;59.56;101018.62;4430926;32;20326;-88
2021/12/17 09:02:59;;;;;;;;;;;;;;;6.91;59.56;101015.22;4430069;32;20054;-86
2021/12/17 09:05:25;;;;;;;;;;;;;;;6.97;59.57;101023.00;4430388;32;20004;-87
2021/12/17 09:07:50;;;;;;;;;;;;;;;6.81;59.55;101028.97;4430244;32;19997;-87
2021/12/17 09:10:21;;;;;;;;;;;;;;;6.87;59.55;101016.09;4430598;32;19997;-88
2021/12/17 09:12:46;;;;;;;;;;;;;;;6.89;59.56;101021.25;4431082;32;20005;-86
2021/12/17 09:15:11;;;;;;;;;;;;;;;7.14;59.57;101024.78;4430383;32;19977;-88
2021/12/17 09:17:37;;;;;;;;;;;;;;;6.98;59.56;101024.72;4430488;32;19969;-88
2021/12/17 09:20:05;;;;;;;;;;;;;;;7.11;59.58;101033.41;4430655;32;19994;-88
2021/12/17 09:22:30;;;;;;;;;;;;;;;7.12;59.57;101023.91;4430533;32;19993;-89
2021/12/17 09:24:55;;;;;;;;;;;;;;;7.07;59.56;101026.47;4430039;32;19977;-86
2021/12/17 09:27:20;;;;;;;;;;;;;;;7.21;59.58;101016.16;4430147;32;20016;-88
2021/12/17 09:29:46;;;;;;;;;;;;;;;7.26;59.58;101011.84;4430227;32;19997;-88
2021/12/17 09:32:11;;;;;;;;;;;;;;;7.39;59.58;101001.50;4429993;32;20025;-87
2021/12/17 09:34:36;;;;;;;;;;;;;;;7.32;59.58;100996.31;4429528;32;20004;-87
2021/12/17 09:37:01;;;;;;;;;;;;;;;7.31;59.58;100992.00;4429346;32;20014;-88
2021/12/17 09:39:26;;;;;;;;;;;;;;;7.33;59.59;100991.16;4429413;32;19993;-87
2021/12/17 09:41:53;;;;;;;;;;;;;;;7.39;59.58;100975.63;4428931;32;20049;-85
2021/12/17 09:44:18;;;;;;;;;;;;;;;7.34;59.58;100972.16;4429250;32;20318;-87
2021/12/17 09:46:44;;;;;;;;;;;;;;;7.17;59.57;100980.78;4429659;32;19989;-87
2021/12/17 09:49:09;;;;;;;;;;;;;;;7.18;59.58;100970.41;4429488;32;20412;-88
2021/12/17 09:51:34;;;;;;;;;;;;;;;7.44;59.59;100973.03;4429694;32;20020;-87
2021/12/17 09:54:00;;;;;;;;;;;;;;;7.58;59.60;100986.84;4429526;32;20064;-87
2021/12/17 09:56:27;;;;;;;;;;;;;;;7.60;59.60;100985.13;4429628;32;19977;-86
2021/12/17 09:58:52;;;;;;;;;;;;;;;7.58;59.59;100984.25;4429513;32;20008;-86
2021/12/17 10:01:18;;;;;;;;;;;;;;;7.68;59.60;100980.78;4441994;32;20001;-86
2021/12/17 10:03:43;;;;;;;;;;;;;;;7.66;59.60;100992.87;4428837;32;20004;-88
2021/12/17 10:06:24;;;;;;;;;;;;;;;7.92;59.62;100994.59;4428929;32;19968;-87
2021/12/17 10:08:49;;;;;;;;;;;;;;;7.85;59.61;100990.28;4430004;32;20029;-87
2021/12/17 10:11:15;;;;;;;;;;;;;;;7.79;59.61;100990.28;4430076;32;20027;-87
2021/12/17 10:13:40;;;;;;;;;;;;;;;7.61;59.59;100991.16;4428663;32;19977;-86
2021/12/17 10:16:09;;;;;;;;;;;;;;;7.61;59.59;100986.84;4428995;32;19973;-87
2021/12/17 10:18:41;;;;;;;;;;;;;;;7.87;59.61;100981.63;4428850;32;19997;-87
2021/12/17 10:21:07;;;;;;;;;;;;;;;8.11;59.63;100979.87;4429153;32;19997;-88
2021/12/17 10:23:32;;;;;;;;;;;;;;;8.22;59.64;100973.78;4429934;32;19985;-88
2021/12/17 10:25:58;;;;;;;;;;;;;;;8.15;59.63;100979.84;4429003;32;20020;-87
2021/12/17 10:28:23;;;;;;;;;;;;;;;8.35;59.64;100976.37;4429903;32;19989;-87
2021/12/17 10:30:49;;;;;;;;;;;;;;;8.13;59.63;100981.59;4439462;32;20020;-86
2021/12/17 10:33:17;;;;;;;;;;;;;;;8.28;59.64;100975.47;4427734;32;19991;-86
2021/12/17 10:35:48;;;;;;;;;;;;;;;8.03;59.62;100979.87;4428387;32;19981;-87
2021/12/17 10:38:15;;;;;;;;;;;;;;;8.25;59.63;100968.56;4428180;32;20005;-85
2021/12/17 10:41:02;;;;;;;;;;;;;;;8.03;59.62;100974.69;4427891;32;19969;-86
2021/12/17 10:43:33;;;;;;;;;;;;;;;8.04;59.62;100965.16;4428979;32;20056;-85
2021/12/17 10:48:38;;;;;;;;;;;;;;;8.06;59.62;100934.94;4441148;32;20000;-85
2021/12/17 10:51:43;;;;;;;;;;;;;;;7.88;59.62;100954.84;4426473;32;20377;-86
2021/12/17 10:53:57;;;;;;;;;;;;;;;7.96;59.61;100940.12;4438335;32;19968;-87
2021/12/17 10:56:23;;;;;;;;;;;;;;;8.13;59.62;100953.06;4424671;32;19985;-86
2021/12/17 10:58:59;;;;;;;;;;;;;;;8.08;59.63;100946.16;4436070;32;20519;-87
2021/12/17 11:01:28;;;;;;;;;;;;;;;8.29;59.63;100948.69;4424650;32;19993;-88
2021/12/17 11:04:02;;;;;;;;;;;;;;;8.14;59.63;100957.38;4424587;32;19995;-86
2021/12/17 11:06:39;;;;;;;;;;;;;;;7.90;59.61;100954.84;4424073;32;20319;-86
2021/12/17 11:09:05;;;;;;;;;;;;;;;7.87;59.61;100952.25;4424589;32;19990;-87
2021/12/17 11:11:33;;;;;;;;;;;;;;;8.22;59.64;100940.06;4423926;32;20003;-86
2021/12/17 11:14:00;;;;;;;;;;;;;;;8.19;59.63;100945.25;4423734;32;19989;-85
2021/12/17 11:16:27;;;;;;;;;;;;;;;8.31;59.64;100939.19;4423961;32;19969;-84
2021/12/17 11:18:52;;;;;;;;;;;;;;;8.29;59.63;100936.59;4424241;32;20058;-88
2021/12/17 11:21:17;;;;;;;;;;;;;;;8.13;59.63;100924.53;4423818;32;19981;-86
2021/12/17 11:23:42;;;;;;;;;;;;;;;8.03;59.62;100930.59;4423855;32;20060;-86
2021/12/17 11:26:08;;;;;;;;;;;;;;;8.18;59.63;100938.34;4423672;32;20093;-87
2021/12/17 11:28:33;;;;;;;;;;;;;;;8.14;59.64;100936.62;4423342;32;19989;-86
2021/12/17 11:30:58;;;;;;;;;;;;;;;8.15;59.63;100935.75;4423593;32;20010;-85
2021/12/17 11:33:24;;;;;;;;;;;;;;;8.14;59.63;100930.59;4423227;32;20240;-87
2021/12/17 11:35:49;;;;;;;;;;;;;;;8.40;59.65;100933.97;4423461;32;19973;-87
2021/12/17 11:38:34;;;;;;;;;;;;;;;8.47;59.65;100929.63;4425195;32;20055;-85
2021/12/17 11:41:18;;;;;;;;;;;;;;;8.58;59.65;100930.44;4438368;32;20054;-87
2021/12/17 11:43:57;;;;;;;;;;;;;;;8.49;59.64;100927.88;4425073;32;19995;-88
2021/12/17 11:46:24;;;;;;;;;;;;;;;8.38;59.64;100919.28;4426225;32;20044;-85
2021/12/17 11:48:54;;;;;;;;;;;;;;;8.37;59.64;100933.13;4425560;32;20050;-85
2021/12/17 11:51:23;;;;;;;;;;;;;;;8.51;59.66;100921.78;4394469;32;1079458;-87
2021/12/17 11:53:52;;;;;;;;;;;;;;;8.36;59.63;100944.38;4426511;32;20052;-87
2021/12/17 11:56:30;;;;;;;;;;;;;;;8.41;59.65;100932.25;4438605;32;20516;-85
2021/12/17 11:58:55;;;;;;;;;;;;;;;8.43;59.64;100922.72;4425870;32;20125;-86
2021/12/17 12:01:39;;;;;;;;;;;;;;;8.42;59.64;100933.97;4439080;32;19996;-86
2021/12/17 12:04:23;;;;;;;;;;;;;;;8.48;59.65;100937.38;4438908;32;20035;-86
2021/12/17 12:07:08;;;;;;;;;;;;;;;8.57;59.65;100937.38;4438206;32;19986;-86
2021/12/17 12:09:56;;;;;;;;;;;;;;;8.79;59.66;100938.13;4426069;32;19997;-87
2021/12/17 12:12:22;;;;;;;;;;;;;;;8.82;59.67;100932.91;4438809;32;19993;-86
2021/12/17 12:14:47;;;;;;;;;;;;;;;8.66;59.66;100938.19;4425404;32;19992;-87
2021/12/17 12:17:13;;;;;;;;;;;;;;;8.48;59.64;100931.34;4425903;32;19977;-86
2021/12/17 12:19:56;;;;;;;;;;;;;;;8.45;59.65;100946.91;4425071;32;20031;-85
2021/12/17 12:22:31;;;;;;;;;;;;;;;8.45;59.65;100941.72;4425325;32;20059;-85
2021/12/17 12:25:15;;;;;;;;;;;;;;;8.61;59.66;100948.59;4425556;32;19981;-85
2021/12/17 12:27:46;;;;;;;;;;;;;;;8.72;59.66;100941.59;4439816;32;19970;-84
2021/12/17 12:30:15;;;;;;;;;;;;;;;8.67;59.66;100932.09;4438420;32;20025;-87
2021/12/17 12:32:59;;;;;;;;;;;;;;;8.53;59.66;100935.66;4426123;32;20377;-85
2021/12/17 12:35:25;;;;;;;;;;;;;;;8.72;59.66;100933.81;4438258;32;20053;-85
2021/12/17 12:38:10;;;;;;;;;;;;;;;8.73;59.66;100924.28;4425891;32;20220;-87
2021/12/17 12:40:42;;;;;;;;;;;;;;;8.60;59.65;100903.59;4439950;32;20000;-87
2021/12/17 12:43:08;;;;;;;;;;;;;;;8.43;59.64;100922.72;4428269;32;20019;-87
2021/12/17 12:45:33;;;;;;;;;;;;;;;8.36;59.63;100926.22;4426909;32;20738;-88
2021/12/17 12:48:00;;;;;;;;;;;;;;;8.49;59.65;100928.72;4426314;32;20250;-86
2021/12/17 12:50:27;;;;;;;;;;;;;;;8.47;59.64;100920.09;4427231;32;19989;-88
2021/12/17 12:52:52;;;;;;;;;;;;;;;8.57;59.65;100924.38;4427330;32;20001;-87
2021/12/17 12:55:17;;;;;;;;;;;;;;;8.41;59.64;100940.88;4439944;32;20040;-87
2021/12/17 12:57:50;;;;;;;;;;;;;;;8.47;59.65;100947.78;4439299;32;20001;-86
2021/12/17 13:00:20;;;;;;;;;;;;;;;8.48;59.65;100933.94;4425773;32;20005;-86
2021/12/17 13:02:46;;;;;;;;;;;;;;;8.51;59.64;100937.38;4425915;32;20008;-86
2021/12/17 13:05:12;;;;;;;;;;;;;;;8.66;59.67;100928.66;4438878;32;19992;-85
2021/12/17 13:07:37;;;;;;;;;;;;;;;8.54;59.65;100921.81;4438626;32;19982;-87
2021/12/17 13:10:16;;;;;;;;;;;;;;;8.53;59.66;100938.25;4438589;32;19994;-86
2021/12/17 13:12:46;;;;;;;;;;;;;;;8.55;59.65;100933.06;4426745;32;19997;-88
2021/12/17 13:23:48;;;;;;;;;;;;;;;8.53;59.65;100925.28;4429214;32;19985;-87
2021/12/17 13:26:13;;;;;;;;;;;;;;;8.51;59.66;100926.13;4426881;32;20378;-86
2021/12/17 13:28:51;;;;;;;;;;;;;;;8.41;59.65;100921.87;4426603;32;19993;-88
2021/12/17 13:31:28;;;;;;;;;;;;;;;8.42;59.64;100927.03;4439318;32;20039;-87
2021/12/17 13:33:54;;;;;;;;;;;;;;;8.23;59.63;100936.59;4438930;32;20004;-87
2021/12/17 13:36:19;;;;;;;;;;;;;;;8.33;59.64;100934.84;4425777;32;20020;-86
2021/12/17 13:38:44;;;;;;;;;;;;;;;8.35;59.63;100930.53;4426033;32;19978;-86
2021/12/17 13:41:10;;;;;;;;;;;;;;;8.04;59.62;100945.28;4425674;32;21186;-87
2021/12/17 13:43:35;;;;;;;;;;;;;;;8.25;59.64;100936.59;4426401;32;20045;-88
2021/12/17 13:46:03;;;;;;;;;;;;;;;8.16;59.63;100936.62;4426094;32;20315;-86
2021/12/17 13:48:28;;;;;;;;;;;;;;;8.18;59.63;100934.88;4426625;32;20001;-86
2021/12/17 13:50:56;;;;;;;;;;;;;;;8.14;59.64;100941.81;4425399;32;20247;-86
2021/12/17 13:53:21;;;;;;;;;;;;;;;8.27;59.64;100942.63;4425131;32;19993;-87
2021/12/17 13:55:47;;;;;;;;;;;;;;;8.20;59.63;100953.91;4425064;32;19999;-85
2021/12/17 13:58:23;;;;;;;;;;;;;;;8.31;59.64;100953.00;4425032;32;20294;-84
2021/12/17 14:00:52;;;;;;;;;;;;;;;7.91;59.61;100962.63;4424656;32;20001;-85
2021/12/17 14:03:21;;;;;;;;;;;;;;;7.93;59.62;100950.50;4425525;32;20011;-85
2021/12/17 14:05:56;;;;;;;;;;;;;;;7.88;59.61;100967.81;4424847;32;20044;-85
2021/12/17 14:08:22;;;;;;;;;;;;;;;7.89;59.62;100976.44;4438267;32;19974;-87
2021/12/17 14:10:48;;;;;;;;;;;;;;;7.89;59.62;100971.25;4425147;32;20049;-87
2021/12/17 14:13:20;;;;;;;;;;;;;;;7.89;59.61;100968.66;4425288;32;20309;-86
2021/12/17 14:15:45;;;;;;;;;;;;;;;7.80;59.61;100969.53;4437860;32;19993;-85
2021/12/17 14:18:10;;;;;;;;;;;;;;;7.93;59.62;100958.28;4424941;32;19973;-85
2021/12/17 14:20:45;;;;;;;;;;;;;;;8.00;59.62;100960.00;4424608;32;20053;-86
2021/12/17 14:23:13;;;;;;;;;;;;;;;7.96;59.61;100958.28;4437863;32;20037;-85
2021/12/17 14:25:43;;;;;;;;;;;;;;;7.90;59.61;100954.84;4438033;32;19977;-87
2021/12/17 14:28:09;;;;;;;;;;;;;;;7.80;59.61;100941.00;4425508;32;20333;-86
2021/12/17 14:30:34;;;;;;;;;;;;;;;7.89;59.62;100947.94;4424852;32;20005;-85
2021/12/17 14:33:05;;;;;;;;;;;;;;;8.08;59.63;100947.03;4424820;32;20099;-85
2021/12/17 14:35:50;;;;;;;;;;;;;;;8.17;59.63;100940.94;4424793;32;19982;-86
2021/12/17 14:38:20;;;;;;;;;;;;;;;8.13;59.63;100944.41;4437800;32;20045;-87
2021/12/17 14:40:55;;;;;;;;;;;;;;;7.84;59.60;100947.09;4424922;32;19993;-86
2021/12/17 14:43:29;;;;;;;;;;;;;;;7.73;59.61;100944.50;4437628;32;20727;-86
2021/12/17 14:46:15;;;;;;;;;;;;;;;7.68;59.60;100949.69;4425272;32;20741;-88
2021/12/17 14:48:56;;;;;;;;;;;;;;;7.59;59.60;100949.72;4426490;32;19970;-85
2021/12/17 15:02:45;;;;;;;;;;;;;;;7.34;59.59;100945.41;4442183;32;19961;-87
2021/12/17 15:04:59;;;;;;;;;;;;;;;7.27;59.58;100936.75;4454308;32;20338;-86
2021/12/17 15:07:26;;;;;;;;;;;;;;;7.28;59.58;100937.59;4427102;32;24330;-85
2021/12/17 15:09:51;;;;;;;;;;;;;;;6.97;59.57;100929.81;4441165;32;20029;-86
2021/12/17 15:12:37;;;;;;;;;;;;;;;7.13;59.57;100927.25;4427416;32;19985;-87
2021/12/17 15:15:03;;;;;;;;;;;;;;;7.07;59.56;100934.12;4430316;32;19997;-86
2021/12/17 15:17:29;;;;;;;;;;;;;;;6.95;59.55;100934.12;4427651;32;19985;-87
2021/12/17 15:19:54;;;;;;;;;;;;;;;6.84;59.55;100940.12;4427571;32;20024;-85
2021/12/17 15:22:19;;;;;;;;;;;;;;;6.80;59.55;100928.03;4427562;32;19993;-85
2021/12/17 15:24:44;;;;;;;;;;;;;;;6.85;59.56;100928.91;4427679;32;19985;-86
2021/12/17 15:27:12;;;;;;;;;;;;;;;6.76;59.55;100932.34;4427439;32;20029;-85
2021/12/17 15:29:37;;;;;;;;;;;;;;;6.79;59.55;100934.94;4427670;32;19945;-85
2021/12/17 15:32:03;;;;;;;;;;;;;;;6.89;59.56;100931.53;4427152;32;19999;-86
2021/12/17 15:34:28;;;;;;;;;;;;;;;6.73;59.56;100934.94;4426955;32;20334;-86
2021/12/17 15:36:57;;;;;;;;;;;;;;;6.79;59.55;100934.94;4425842;32;20038;-85
2021/12/17 15:39:22;;;;;;;;;;;;;;;6.76;59.55;100935.81;4426833;32;19992;-86
2021/12/17 15:41:47;;;;;;;;;;;;;;;6.71;59.55;100945.28;4426259;32;20078;-86
2021/12/17 15:44:12;;;;;;;;;;;;;;;6.78;59.55;100934.09;4426684;32;20117;-86
2021/12/17 15:46:38;;;;;;;;;;;;;;;6.74;59.56;100939.25;4426396;32;20005;-85
2021/12/17 15:49:03;;;;;;;;;;;;;;;6.47;59.54;100935.72;4426433;32;20024;-85
2021/12/17 15:51:28;;;;;;;;;;;;;;;6.47;59.54;100942.63;4426848;32;20004;-86
2021/12/17 15:53:55;;;;;;;;;;;;;;;6.61;59.55;100938.34;4425959;32;20080;-86
2021/12/17 15:56:20;;;;;;;;;;;;;;;6.68;59.54;100922.00;4426129;32;19991;-86
2021/12/17 15:58:45;;;;;;;;;;;;;;;6.63;59.54;100928.87;4426923;32;19993;-86
2021/12/17 16:01:10;;;;;;;;;;;;;;;6.62;59.54;100931.44;4427025;32;19985;-86
2021/12/17 16:03:38;;;;;;;;;;;;;;;6.47;59.54;100927.97;4426063;32;19992;-86